sensor_id;sensor_type;location;lat;lon;timestamp;P1;durP1;ratioP1;P2;durP2;ratioP2
80732;SDS011;70130;44.534;18.678;2023-10-31T00:01:33;8.13;;;5.00;;
80732;SDS011;70130;44.534;18.678;2023-10-31T00:03:59;11.25;;;5.18;;
80732;SDS011;70130;44.534;18.678;2023-10-31T00:06:24;12.10;;;4.97;;
80732;SDS011;70130;44.534;18.678;2023-10-31T00:08:53;11.88;;;6.07;;
80732;SDS011;70130;44.534;18.678;2023-10-31T00:11:25;14.77;;;6.13;;
80732;SDS011;70130;44.534;18.678;2023-10-31T00:13:53;13.48;;;6.18;;
80732;SDS011;70130;44.534;18.678;2023-10-31T00:16:19;9.65;;;6.05;;
80732;SDS011;70130;44.534;18.678;2023-10-31T00:18:47;12.80;;;5.55;;
80732;SDS011;70130;44.534;18.678;2023-10-31T00:21:13;10.70;;;5.70;;
80732;SDS011;70130;44.534;18.678;2023-10-31T00:23:42;9.95;;;4.63;;
80732;SDS011;70130;44.534;18.678;2023-10-31T00:26:11;10.73;;;4.68;;
80732;SDS011;70130;44.534;18.678;2023-10-31T00:28:41;8.90;;;4.57;;
80732;SDS011;70130;44.534;18.678;2023-10-31T00:31:07;6.10;;;2.80;;
80732;SDS011;70130;44.534;18.678;2023-10-31T00:33:36;5.07;;;2.55;;
80732;SDS011;70130;44.534;18.678;2023-10-31T00:36:05;5.60;;;2.60;;
80732;SDS011;70130;44.534;18.678;2023-10-31T00:41:37;4.70;;;2.80;;
80732;SDS011;70130;44.534;18.678;2023-10-31T00:44:07;6.72;;;2.97;;
80732;SDS011;70130;44.534;18.678;2023-10-31T00:46:35;6.75;;;3.38;;
80732;SDS011;70130;44.534;18.678;2023-10-31T00:49:06;5.72;;;2.97;;
80732;SDS011;70130;44.534;18.678;2023-10-31T00:51:35;6.82;;;3.20;;
80732;SDS011;70130;44.534;18.678;2023-10-31T00:54:00;5.55;;;3.20;;
80732;SDS011;70130;44.534;18.678;2023-10-31T00:56:30;6.13;;;3.15;;
80732;SDS011;70130;44.534;18.678;2023-10-31T00:58:59;4.22;;;2.83;;
80732;SDS011;70130;44.534;18.678;2023-10-31T01:01:31;4.63;;;2.63;;
80732;SDS011;70130;44.534;18.678;2023-10-31T01:04:00;5.40;;;2.70;;
80732;SDS011;70130;44.534;18.678;2023-10-31T01:06:28;8.00;;;2.88;;
80732;SDS011;70130;44.534;18.678;2023-10-31T01:08:54;7.63;;;3.13;;
80732;SDS011;70130;44.534;18.678;2023-10-31T01:11:23;5.40;;;2.70;;
80732;SDS011;70130;44.534;18.678;2023-10-31T01:13:51;5.85;;;2.75;;
80732;SDS011;70130;44.534;18.678;2023-10-31T01:16:17;5.93;;;3.00;;
80732;SDS011;70130;44.534;18.678;2023-10-31T01:18:45;6.78;;;3.35;;
80732;SDS011;70130;44.534;18.678;2023-10-31T01:21:14;7.47;;;3.00;;
80732;SDS011;70130;44.534;18.678;2023-10-31T01:23:42;13.82;;;4.95;;
80732;SDS011;70130;44.534;18.678;2023-10-31T01:26:26;12.23;;;5.70;;
80732;SDS011;70130;44.534;18.678;2023-10-31T01:31:56;7.13;;;3.63;;
80732;SDS011;70130;44.534;18.678;2023-10-31T01:34:24;7.53;;;3.47;;
80732;SDS011;70130;44.534;18.678;2023-10-31T01:36:53;10.75;;;4.68;;
80732;SDS011;70130;44.534;18.678;2023-10-31T01:39:21;15.55;;;5.72;;
80732;SDS011;70130;44.534;18.678;2023-10-31T01:41:47;13.40;;;5.10;;
80732;SDS011;70130;44.534;18.678;2023-10-31T01:44:13;13.88;;;5.55;;
80732;SDS011;70130;44.534;18.678;2023-10-31T01:46:42;13.02;;;5.15;;
80732;SDS011;70130;44.534;18.678;2023-10-31T01:49:08;14.07;;;4.43;;
80732;SDS011;70130;44.534;18.678;2023-10-31T01:51:36;8.88;;;4.05;;
80732;SDS011;70130;44.534;18.678;2023-10-31T01:54:12;12.10;;;3.38;;
80732;SDS011;70130;44.534;18.678;2023-10-31T01:56:54;7.03;;;2.30;;
80732;SDS011;70130;44.534;18.678;2023-10-31T02:02:16;3.88;;;1.52;;
80732;SDS011;70130;44.534;18.678;2023-10-31T02:04:45;4.45;;;1.40;;
80732;SDS011;70130;44.534;18.678;2023-10-31T02:07:14;4.20;;;1.80;;
80732;SDS011;70130;44.534;18.678;2023-10-31T02:09:42;3.15;;;1.10;;
80732;SDS011;70130;44.534;18.678;2023-10-31T02:12:12;0.82;;;0.70;;
80732;SDS011;70130;44.534;18.678;2023-10-31T02:14:59;2.30;;;0.90;;
80732;SDS011;70130;44.534;18.678;2023-10-31T02:17:24;2.08;;;1.00;;
80732;SDS011;70130;44.534;18.678;2023-10-31T02:19:59;2.60;;;0.70;;
80732;SDS011;70130;44.534;18.678;2023-10-31T02:22:27;3.97;;;0.82;;
80732;SDS011;70130;44.534;18.678;2023-10-31T02:24:56;3.72;;;0.80;;
80732;SDS011;70130;44.534;18.678;2023-10-31T02:27:25;2.25;;;0.80;;
80732;SDS011;70130;44.534;18.678;2023-10-31T02:29:53;1.15;;;0.90;;
80732;SDS011;70130;44.534;18.678;2023-10-31T02:32:25;2.00;;;0.90;;
80732;SDS011;70130;44.534;18.678;2023-10-31T02:34:59;2.67;;;0.95;;
80732;SDS011;70130;44.534;18.678;2023-10-31T02:37:28;3.95;;;1.10;;
80732;SDS011;70130;44.534;18.678;2023-10-31T02:39:56;2.85;;;1.25;;
80732;SDS011;70130;44.534;18.678;2023-10-31T02:42:25;1.52;;;1.10;;
80732;SDS011;70130;44.534;18.678;2023-10-31T02:45:09;1.85;;;1.15;;
80732;SDS011;70130;44.534;18.678;2023-10-31T02:50:23;1.70;;;0.82;;
80732;SDS011;70130;44.534;18.678;2023-10-31T03:01:29;3.88;;;2.13;;
80732;SDS011;70130;44.534;18.678;2023-10-31T03:03:58;1.30;;;0.70;;
80732;SDS011;70130;44.534;18.678;2023-10-31T03:06:26;1.98;;;0.88;;
80732;SDS011;70130;44.534;18.678;2023-10-31T03:08:55;1.48;;;0.90;;
80732;SDS011;70130;44.534;18.678;2023-10-31T03:11:24;1.35;;;0.90;;
80732;SDS011;70130;44.534;18.678;2023-10-31T03:13:53;1.17;;;0.93;;
80732;SDS011;70130;44.534;18.678;2023-10-31T03:16:19;1.50;;;0.93;;
80732;SDS011;70130;44.534;18.678;2023-10-31T03:18:45;2.20;;;1.42;;
80732;SDS011;70130;44.534;18.678;2023-10-31T03:21:14;1.33;;;0.90;;
80732;SDS011;70130;44.534;18.678;2023-10-31T03:23:46;3.25;;;1.20;;
80732;SDS011;70130;44.534;18.678;2023-10-31T03:26:24;3.63;;;1.10;;
80732;SDS011;70130;44.534;18.678;2023-10-31T03:28:52;3.75;;;1.00;;
80732;SDS011;70130;44.534;18.678;2023-10-31T03:31:28;1.85;;;1.05;;
80732;SDS011;70130;44.534;18.678;2023-10-31T03:33:56;2.15;;;1.10;;
80732;SDS011;70130;44.534;18.678;2023-10-31T03:36:25;1.77;;;0.90;;
80732;SDS011;70130;44.534;18.678;2023-10-31T03:38:54;2.80;;;1.10;;
80732;SDS011;70130;44.534;18.678;2023-10-31T03:44:10;1.42;;;0.82;;
80732;SDS011;70130;44.534;18.678;2023-10-31T03:46:39;4.20;;;1.27;;
80732;SDS011;70130;44.534;18.678;2023-10-31T03:54:44;2.60;;;1.40;;
80732;SDS011;70130;44.534;18.678;2023-10-31T03:57:09;3.03;;;1.20;;
80732;SDS011;70130;44.534;18.678;2023-10-31T03:59:38;4.38;;;1.70;;
80732;SDS011;70130;44.534;18.678;2023-10-31T04:02:08;7.13;;;2.15;;
80732;SDS011;70130;44.534;18.678;2023-10-31T04:04:36;5.45;;;2.45;;
80732;SDS011;70130;44.534;18.678;2023-10-31T04:07:05;7.43;;;2.80;;
80732;SDS011;70130;44.534;18.678;2023-10-31T04:09:42;4.25;;;1.98;;
80732;SDS011;70130;44.534;18.678;2023-10-31T04:12:17;4.50;;;2.15;;
80732;SDS011;70130;44.534;18.678;2023-10-31T04:14:46;6.00;;;2.03;;
80732;SDS011;70130;44.534;18.678;2023-10-31T04:17:11;6.35;;;1.95;;
80732;SDS011;70130;44.534;18.678;2023-10-31T04:19:37;5.35;;;2.30;;
80732;SDS011;70130;44.534;18.678;2023-10-31T04:22:03;5.60;;;1.95;;
80732;SDS011;70130;44.534;18.678;2023-10-31T04:24:31;7.40;;;1.85;;
80732;SDS011;70130;44.534;18.678;2023-10-31T04:27:00;3.90;;;1.20;;
80732;SDS011;70130;44.534;18.678;2023-10-31T04:29:38;3.58;;;1.33;;
80732;SDS011;70130;44.534;18.678;2023-10-31T04:32:06;3.58;;;1.35;;
80732;SDS011;70130;44.534;18.678;2023-10-31T04:34:37;5.30;;;2.13;;
80732;SDS011;70130;44.534;18.678;2023-10-31T04:37:06;4.05;;;1.85;;
80732;SDS011;70130;44.534;18.678;2023-10-31T04:39:38;5.05;;;1.90;;
80732;SDS011;70130;44.534;18.678;2023-10-31T04:42:06;2.72;;;1.80;;
80732;SDS011;70130;44.534;18.678;2023-10-31T04:44:31;4.90;;;2.05;;
80732;SDS011;70130;44.534;18.678;2023-10-31T04:47:00;4.80;;;3.22;;
80732;SDS011;70130;44.534;18.678;2023-10-31T04:49:26;3.17;;;2.10;;
80732;SDS011;70130;44.534;18.678;2023-10-31T04:51:58;6.78;;;2.55;;
80732;SDS011;70130;44.534;18.678;2023-10-31T04:54:26;5.90;;;2.90;;
80732;SDS011;70130;44.534;18.678;2023-10-31T04:56:52;8.93;;;3.05;;
80732;SDS011;70130;44.534;18.678;2023-10-31T04:59:17;8.27;;;3.33;;
80732;SDS011;70130;44.534;18.678;2023-10-31T05:01:49;7.13;;;2.80;;
80732;SDS011;70130;44.534;18.678;2023-10-31T05:04:23;5.75;;;2.20;;
80732;SDS011;70130;44.534;18.678;2023-10-31T05:06:49;4.03;;;2.22;;
80732;SDS011;70130;44.534;18.678;2023-10-31T05:09:14;2.15;;;1.15;;
80732;SDS011;70130;44.534;18.678;2023-10-31T05:11:43;3.78;;;2.00;;
80732;SDS011;70130;44.534;18.678;2023-10-31T05:14:10;3.15;;;1.40;;
80732;SDS011;70130;44.534;18.678;2023-10-31T05:16:39;2.00;;;1.00;;
80732;SDS011;70130;44.534;18.678;2023-10-31T05:19:11;2.58;;;1.10;;
80732;SDS011;70130;44.534;18.678;2023-10-31T05:21:36;4.50;;;1.30;;
80732;SDS011;70130;44.534;18.678;2023-10-31T05:24:02;2.75;;;0.90;;
80732;SDS011;70130;44.534;18.678;2023-10-31T05:26:34;3.38;;;0.70;;
80732;SDS011;70130;44.534;18.678;2023-10-31T05:32:09;2.97;;;0.98;;
80732;SDS011;70130;44.534;18.678;2023-10-31T05:34:40;5.10;;;1.38;;
80732;SDS011;70130;44.534;18.678;2023-10-31T05:37:09;4.13;;;1.38;;
80732;SDS011;70130;44.534;18.678;2023-10-31T05:39:35;4.30;;;1.17;;
80732;SDS011;70130;44.534;18.678;2023-10-31T05:42:04;5.65;;;1.67;;
80732;SDS011;70130;44.534;18.678;2023-10-31T05:44:30;1.92;;;1.05;;
80732;SDS011;70130;44.534;18.678;2023-10-31T05:46:55;2.47;;;1.17;;
80732;SDS011;70130;44.534;18.678;2023-10-31T05:49:21;3.05;;;1.20;;
80732;SDS011;70130;44.534;18.678;2023-10-31T05:51:50;3.80;;;1.33;;
80732;SDS011;70130;44.534;18.678;2023-10-31T05:54:16;3.75;;;1.10;;
80732;SDS011;70130;44.534;18.678;2023-10-31T05:56:42;4.72;;;1.60;;
80732;SDS011;70130;44.534;18.678;2023-10-31T05:59:08;4.05;;;1.50;;
80732;SDS011;70130;44.534;18.678;2023-10-31T06:01:33;4.85;;;1.70;;
80732;SDS011;70130;44.534;18.678;2023-10-31T06:03:59;5.00;;;1.48;;
80732;SDS011;70130;44.534;18.678;2023-10-31T06:06:24;2.97;;;1.52;;
80732;SDS011;70130;44.534;18.678;2023-10-31T06:08:50;3.28;;;1.63;;
80732;SDS011;70130;44.534;18.678;2023-10-31T06:11:16;2.95;;;1.67;;
80732;SDS011;70130;44.534;18.678;2023-10-31T06:13:44;6.57;;;2.42;;
80732;SDS011;70130;44.534;18.678;2023-10-31T06:16:10;4.13;;;2.10;;
80732;SDS011;70130;44.534;18.678;2023-10-31T06:18:37;5.75;;;2.05;;
80732;SDS011;70130;44.534;18.678;2023-10-31T06:21:03;3.58;;;1.75;;
80732;SDS011;70130;44.534;18.678;2023-10-31T06:23:29;7.32;;;2.40;;
80732;SDS011;70130;44.534;18.678;2023-10-31T06:25:54;4.72;;;2.28;;
80732;SDS011;70130;44.534;18.678;2023-10-31T06:28:20;10.30;;;3.85;;
80732;SDS011;70130;44.534;18.678;2023-10-31T06:30:45;7.38;;;2.60;;
80732;SDS011;70130;44.534;18.678;2023-10-31T06:33:11;6.43;;;1.95;;
80732;SDS011;70130;44.534;18.678;2023-10-31T06:35:37;9.55;;;3.03;;
80732;SDS011;70130;44.534;18.678;2023-10-31T06:38:02;9.88;;;4.35;;
80732;SDS011;70130;44.534;18.678;2023-10-31T06:40:28;7.20;;;3.13;;
80732;SDS011;70130;44.534;18.678;2023-10-31T06:42:54;9.50;;;3.03;;
80732;SDS011;70130;44.534;18.678;2023-10-31T06:45:19;9.98;;;3.63;;
80732;SDS011;70130;44.534;18.678;2023-10-31T06:47:45;6.55;;;3.83;;
80732;SDS011;70130;44.534;18.678;2023-10-31T06:50:11;6.25;;;3.00;;
80732;SDS011;70130;44.534;18.678;2023-10-31T06:52:36;8.70;;;3.88;;
80732;SDS011;70130;44.534;18.678;2023-10-31T06:55:02;7.95;;;4.43;;
80732;SDS011;70130;44.534;18.678;2023-10-31T06:57:28;12.00;;;4.97;;
80732;SDS011;70130;44.534;18.678;2023-10-31T06:59:53;10.70;;;5.32;;
80732;SDS011;70130;44.534;18.678;2023-10-31T07:02:19;10.32;;;5.18;;
80732;SDS011;70130;44.534;18.678;2023-10-31T07:04:44;13.10;;;5.68;;
80732;SDS011;70130;44.534;18.678;2023-10-31T07:07:10;13.85;;;4.57;;
80732;SDS011;70130;44.534;18.678;2023-10-31T07:09:35;10.52;;;5.50;;
80732;SDS011;70130;44.534;18.678;2023-10-31T07:12:01;9.63;;;4.18;;
80732;SDS011;70130;44.534;18.678;2023-10-31T07:14:27;10.45;;;3.75;;
80732;SDS011;70130;44.534;18.678;2023-10-31T07:16:52;9.23;;;4.30;;
80732;SDS011;70130;44.534;18.678;2023-10-31T07:19:18;7.22;;;3.67;;
80732;SDS011;70130;44.534;18.678;2023-10-31T07:21:43;7.97;;;3.50;;
80732;SDS011;70130;44.534;18.678;2023-10-31T07:24:09;15.30;;;4.03;;
80732;SDS011;70130;44.534;18.678;2023-10-31T07:26:35;10.10;;;4.20;;
80732;SDS011;70130;44.534;18.678;2023-10-31T07:29:01;8.35;;;4.00;;
80732;SDS011;70130;44.534;18.678;2023-10-31T07:31:26;11.50;;;5.28;;
80732;SDS011;70130;44.534;18.678;2023-10-31T07:33:52;13.00;;;5.70;;
80732;SDS011;70130;44.534;18.678;2023-10-31T07:36:17;9.43;;;3.97;;
80732;SDS011;70130;44.534;18.678;2023-10-31T07:38:43;9.02;;;4.10;;
80732;SDS011;70130;44.534;18.678;2023-10-31T07:41:08;15.35;;;7.10;;
80732;SDS011;70130;44.534;18.678;2023-10-31T07:43:34;16.92;;;7.32;;
80732;SDS011;70130;44.534;18.678;2023-10-31T07:46:00;17.48;;;8.55;;
80732;SDS011;70130;44.534;18.678;2023-10-31T07:48:25;20.77;;;9.48;;
80732;SDS011;70130;44.534;18.678;2023-10-31T07:50:51;31.73;;;12.05;;
80732;SDS011;70130;44.534;18.678;2023-10-31T07:53:16;30.58;;;12.65;;
80732;SDS011;70130;44.534;18.678;2023-10-31T07:55:42;34.67;;;13.93;;
80732;SDS011;70130;44.534;18.678;2023-10-31T07:58:08;39.45;;;15.63;;
80732;SDS011;70130;44.534;18.678;2023-10-31T08:00:35;43.60;;;17.50;;
80732;SDS011;70130;44.534;18.678;2023-10-31T08:03:01;29.30;;;12.07;;
80732;SDS011;70130;44.534;18.678;2023-10-31T08:05:27;30.70;;;12.85;;
80732;SDS011;70130;44.534;18.678;2023-10-31T08:07:53;32.83;;;14.43;;
80732;SDS011;70130;44.534;18.678;2023-10-31T08:10:18;28.10;;;12.38;;
80732;SDS011;70130;44.534;18.678;2023-10-31T08:12:44;26.85;;;10.40;;
80732;SDS011;70130;44.534;18.678;2023-10-31T08:15:09;27.05;;;9.05;;
80732;SDS011;70130;44.534;18.678;2023-10-31T08:17:35;18.05;;;7.10;;
80732;SDS011;70130;44.534;18.678;2023-10-31T08:20:01;20.08;;;6.68;;
80732;SDS011;70130;44.534;18.678;2023-10-31T08:22:29;23.67;;;8.15;;
80732;SDS011;70130;44.534;18.678;2023-10-31T08:24:54;19.33;;;6.40;;
80732;SDS011;70130;44.534;18.678;2023-10-31T08:27:20;19.52;;;6.43;;
80732;SDS011;70130;44.534;18.678;2023-10-31T08:29:46;14.77;;;5.80;;
80732;SDS011;70130;44.534;18.678;2023-10-31T08:32:12;18.73;;;6.40;;
80732;SDS011;70130;44.534;18.678;2023-10-31T08:34:37;17.80;;;6.28;;
80732;SDS011;70130;44.534;18.678;2023-10-31T08:37:03;16.98;;;6.35;;
80732;SDS011;70130;44.534;18.678;2023-10-31T08:39:29;22.50;;;6.13;;
80732;SDS011;70130;44.534;18.678;2023-10-31T08:41:57;21.50;;;7.40;;
80732;SDS011;70130;44.534;18.678;2023-10-31T08:44:23;18.52;;;6.57;;
80732;SDS011;70130;44.534;18.678;2023-10-31T08:46:50;14.85;;;5.03;;
80732;SDS011;70130;44.534;18.678;2023-10-31T08:49:16;25.52;;;5.82;;
80732;SDS011;70130;44.534;18.678;2023-10-31T08:51:42;20.90;;;7.40;;
80732;SDS011;70130;44.534;18.678;2023-10-31T08:54:08;16.13;;;6.55;;
80732;SDS011;70130;44.534;18.678;2023-10-31T08:56:35;20.30;;;5.18;;
80732;SDS011;70130;44.534;18.678;2023-10-31T08:59:00;18.50;;;6.40;;
80732;SDS011;70130;44.534;18.678;2023-10-31T09:01:26;15.93;;;5.72;;
80732;SDS011;70130;44.534;18.678;2023-10-31T09:03:52;16.92;;;5.05;;
80732;SDS011;70130;44.534;18.678;2023-10-31T09:06:18;23.25;;;6.50;;
80732;SDS011;70130;44.534;18.678;2023-10-31T09:08:43;19.70;;;6.20;;
80732;SDS011;70130;44.534;18.678;2023-10-31T09:11:09;17.70;;;7.03;;
80732;SDS011;70130;44.534;18.678;2023-10-31T09:13:34;24.80;;;6.75;;
80732;SDS011;70130;44.534;18.678;2023-10-31T09:16:00;15.15;;;5.80;;
80732;SDS011;70130;44.534;18.678;2023-10-31T09:18:26;16.85;;;6.80;;
80732;SDS011;70130;44.534;18.678;2023-10-31T09:20:51;18.65;;;5.47;;
80732;SDS011;70130;44.534;18.678;2023-10-31T09:23:17;12.68;;;5.03;;
80732;SDS011;70130;44.534;18.678;2023-10-31T09:25:43;18.45;;;6.07;;
80732;SDS011;70130;44.534;18.678;2023-10-31T09:28:09;21.95;;;6.20;;
80732;SDS011;70130;44.534;18.678;2023-10-31T09:30:54;17.98;;;6.32;;
80732;SDS011;70130;44.534;18.678;2023-10-31T09:33:19;16.77;;;6.40;;
80732;SDS011;70130;44.534;18.678;2023-10-31T09:35:45;17.05;;;4.97;;
80732;SDS011;70130;44.534;18.678;2023-10-31T09:38:10;32.60;;;7.22;;
80732;SDS011;70130;44.534;18.678;2023-10-31T09:40:37;17.42;;;5.50;;
80732;SDS011;70130;44.534;18.678;2023-10-31T09:43:04;30.75;;;7.22;;
80732;SDS011;70130;44.534;18.678;2023-10-31T09:45:30;23.67;;;7.47;;
80732;SDS011;70130;44.534;18.678;2023-10-31T09:47:55;27.65;;;6.65;;
80732;SDS011;70130;44.534;18.678;2023-10-31T09:50:24;28.35;;;7.57;;
80732;SDS011;70130;44.534;18.678;2023-10-31T09:52:50;17.00;;;7.43;;
80732;SDS011;70130;44.534;18.678;2023-10-31T09:55:16;18.33;;;7.05;;
80732;SDS011;70130;44.534;18.678;2023-10-31T09:57:42;20.10;;;6.30;;
80732;SDS011;70130;44.534;18.678;2023-10-31T10:00:07;18.33;;;7.28;;
80732;SDS011;70130;44.534;18.678;2023-10-31T10:02:36;18.77;;;5.85;;
80732;SDS011;70130;44.534;18.678;2023-10-31T10:05:02;18.45;;;7.20;;
80732;SDS011;70130;44.534;18.678;2023-10-31T10:07:29;15.00;;;6.40;;
80732;SDS011;70130;44.534;18.678;2023-10-31T10:09:55;18.55;;;6.95;;
80732;SDS011;70130;44.534;18.678;2023-10-31T10:12:21;17.73;;;5.90;;
80732;SDS011;70130;44.534;18.678;2023-10-31T10:14:47;21.60;;;6.22;;
80732;SDS011;70130;44.534;18.678;2023-10-31T10:17:22;26.90;;;7.07;;
80732;SDS011;70130;44.534;18.678;2023-10-31T10:22:41;16.88;;;5.85;;
80732;SDS011;70130;44.534;18.678;2023-10-31T10:25:08;21.45;;;5.93;;
80732;SDS011;70130;44.534;18.678;2023-10-31T10:27:37;15.02;;;6.22;;
80732;SDS011;70130;44.534;18.678;2023-10-31T10:30:03;15.20;;;6.60;;
80732;SDS011;70130;44.534;18.678;2023-10-31T10:32:30;16.63;;;6.05;;
80732;SDS011;70130;44.534;18.678;2023-10-31T10:34:55;13.18;;;6.47;;
80732;SDS011;70130;44.534;18.678;2023-10-31T10:37:21;22.15;;;8.70;;
80732;SDS011;70130;44.534;18.678;2023-10-31T10:39:48;14.48;;;6.00;;
80732;SDS011;70130;44.534;18.678;2023-10-31T10:42:21;19.15;;;7.00;;
80732;SDS011;70130;44.534;18.678;2023-10-31T10:45:01;19.15;;;7.60;;
80732;SDS011;70130;44.534;18.678;2023-10-31T10:47:29;21.15;;;6.88;;
80732;SDS011;70130;44.534;18.678;2023-10-31T10:49:58;16.80;;;5.93;;
80732;SDS011;70130;44.534;18.678;2023-10-31T10:52:29;20.02;;;5.03;;
80732;SDS011;70130;44.534;18.678;2023-10-31T10:55:11;17.15;;;5.35;;
80732;SDS011;70130;44.534;18.678;2023-10-31T11:00:12;16.30;;;4.28;;
80732;SDS011;70130;44.534;18.678;2023-10-31T11:02:40;11.52;;;4.53;;
80732;SDS011;70130;44.534;18.678;2023-10-31T11:05:10;10.80;;;4.20;;
80732;SDS011;70130;44.534;18.678;2023-10-31T11:07:37;13.35;;;5.10;;
80732;SDS011;70130;44.534;18.678;2023-10-31T11:10:04;19.20;;;5.68;;
80732;SDS011;70130;44.534;18.678;2023-10-31T11:12:34;11.50;;;4.78;;
80732;SDS011;70130;44.534;18.678;2023-10-31T11:15:01;14.15;;;5.20;;
80732;SDS011;70130;44.534;18.678;2023-10-31T11:17:30;13.18;;;4.60;;
80732;SDS011;70130;44.534;18.678;2023-10-31T11:19:59;15.77;;;5.00;;
80732;SDS011;70130;44.534;18.678;2023-10-31T11:22:25;18.08;;;5.47;;
80732;SDS011;70130;44.534;18.678;2023-10-31T11:24:51;11.70;;;4.70;;
80732;SDS011;70130;44.534;18.678;2023-10-31T11:27:17;19.70;;;5.40;;
80732;SDS011;70130;44.534;18.678;2023-10-31T11:29:43;14.75;;;4.90;;
80732;SDS011;70130;44.534;18.678;2023-10-31T11:32:10;22.92;;;7.20;;
80732;SDS011;70130;44.534;18.678;2023-10-31T11:34:39;21.38;;;7.07;;
80732;SDS011;70130;44.534;18.678;2023-10-31T11:40:14;16.83;;;5.13;;
80732;SDS011;70130;44.534;18.678;2023-10-31T11:42:50;17.52;;;5.13;;
80732;SDS011;70130;44.534;18.678;2023-10-31T11:47:50;13.38;;;5.38;;
80732;SDS011;70130;44.534;18.678;2023-10-31T11:50:16;14.45;;;5.20;;
80732;SDS011;70130;44.534;18.678;2023-10-31T11:52:43;14.55;;;5.38;;
80732;SDS011;70130;44.534;18.678;2023-10-31T11:55:12;9.07;;;5.18;;
80732;SDS011;70130;44.534;18.678;2023-10-31T11:57:38;18.95;;;5.30;;
80732;SDS011;70130;44.534;18.678;2023-10-31T12:00:05;13.55;;;5.47;;
80732;SDS011;70130;44.534;18.678;2023-10-31T12:02:38;14.82;;;5.88;;
80732;SDS011;70130;44.534;18.678;2023-10-31T12:05:10;13.18;;;4.45;;
80732;SDS011;70130;44.534;18.678;2023-10-31T12:07:44;12.45;;;5.88;;
80732;SDS011;70130;44.534;18.678;2023-10-31T12:10:11;14.35;;;6.50;;
80732;SDS011;70130;44.534;18.678;2023-10-31T12:12:37;10.57;;;3.65;;
80732;SDS011;70130;44.534;18.678;2023-10-31T12:15:06;10.02;;;2.80;;
80732;SDS011;70130;44.534;18.678;2023-10-31T12:17:35;11.55;;;3.83;;
80732;SDS011;70130;44.534;18.678;2023-10-31T12:20:05;13.27;;;3.63;;
80732;SDS011;70130;44.534;18.678;2023-10-31T12:25:04;12.13;;;3.70;;
80732;SDS011;70130;44.534;18.678;2023-10-31T12:27:44;14.65;;;5.70;;
80732;SDS011;70130;44.534;18.678;2023-10-31T12:30:11;12.95;;;3.60;;
80732;SDS011;70130;44.534;18.678;2023-10-31T12:32:39;10.65;;;2.90;;
80732;SDS011;70130;44.534;18.678;2023-10-31T12:35:05;7.90;;;2.60;;
80732;SDS011;70130;44.534;18.678;2023-10-31T12:37:31;20.50;;;4.05;;
80732;SDS011;70130;44.534;18.678;2023-10-31T12:39:58;15.50;;;3.88;;
80732;SDS011;70130;44.534;18.678;2023-10-31T12:42:27;11.48;;;3.05;;
80732;SDS011;70130;44.534;18.678;2023-10-31T12:44:55;10.50;;;3.20;;
80732;SDS011;70130;44.534;18.678;2023-10-31T12:47:22;13.52;;;4.20;;
80732;SDS011;70130;44.534;18.678;2023-10-31T12:49:48;11.45;;;2.67;;
80732;SDS011;70130;44.534;18.678;2023-10-31T12:52:28;6.68;;;2.88;;
80732;SDS011;70130;44.534;18.678;2023-10-31T12:55:16;7.82;;;2.03;;
80732;SDS011;70130;44.534;18.678;2023-10-31T12:57:47;4.68;;;2.10;;
80732;SDS011;70130;44.534;18.678;2023-10-31T13:00:14;8.25;;;2.70;;
80732;SDS011;70130;44.534;18.678;2023-10-31T13:02:41;9.55;;;2.70;;
80732;SDS011;70130;44.534;18.678;2023-10-31T13:05:11;13.57;;;2.70;;
80732;SDS011;70130;44.534;18.678;2023-10-31T13:07:39;6.05;;;1.90;;
80732;SDS011;70130;44.534;18.678;2023-10-31T13:10:06;7.13;;;2.05;;
80732;SDS011;70130;44.534;18.678;2023-10-31T13:12:35;6.18;;;2.53;;
80732;SDS011;70130;44.534;18.678;2023-10-31T13:15:01;7.93;;;2.35;;
80732;SDS011;70130;44.534;18.678;2023-10-31T13:17:27;8.07;;;2.35;;
80732;SDS011;70130;44.534;18.678;2023-10-31T13:19:53;10.95;;;2.35;;
80732;SDS011;70130;44.534;18.678;2023-10-31T13:22:19;8.90;;;2.33;;
80732;SDS011;70130;44.534;18.678;2023-10-31T13:24:44;5.07;;;2.00;;
80732;SDS011;70130;44.534;18.678;2023-10-31T13:27:11;8.48;;;2.00;;
80732;SDS011;70130;44.534;18.678;2023-10-31T13:29:41;9.18;;;2.60;;
80732;SDS011;70130;44.534;18.678;2023-10-31T13:32:06;12.30;;;2.15;;
80732;SDS011;70130;44.534;18.678;2023-10-31T13:34:33;7.60;;;2.20;;
80732;SDS011;70130;44.534;18.678;2023-10-31T13:36:59;7.47;;;1.80;;
80732;SDS011;70130;44.534;18.678;2023-10-31T13:39:25;7.25;;;1.80;;
80732;SDS011;70130;44.534;18.678;2023-10-31T13:41:53;9.88;;;2.22;;
80732;SDS011;70130;44.534;18.678;2023-10-31T13:44:18;6.65;;;2.25;;
80732;SDS011;70130;44.534;18.678;2023-10-31T13:46:44;9.85;;;2.72;;
80732;SDS011;70130;44.534;18.678;2023-10-31T13:49:09;6.28;;;2.75;;
80732;SDS011;70130;44.534;18.678;2023-10-31T13:51:37;6.78;;;1.80;;
80732;SDS011;70130;44.534;18.678;2023-10-31T13:54:03;6.40;;;1.50;;
80732;SDS011;70130;44.534;18.678;2023-10-31T13:56:45;11.05;;;2.30;;
80732;SDS011;70130;44.534;18.678;2023-10-31T13:59:11;4.18;;;1.85;;
80732;SDS011;70130;44.534;18.678;2023-10-31T14:01:37;4.13;;;1.40;;
80732;SDS011;70130;44.534;18.678;2023-10-31T14:04:02;9.25;;;1.88;;
80732;SDS011;70130;44.534;18.678;2023-10-31T14:06:31;7.47;;;1.65;;
80732;SDS011;70130;44.534;18.678;2023-10-31T14:08:58;7.07;;;2.25;;
80732;SDS011;70130;44.534;18.678;2023-10-31T14:11:26;6.90;;;1.92;;
80732;SDS011;70130;44.534;18.678;2023-10-31T14:13:51;8.20;;;2.97;;
80732;SDS011;70130;44.534;18.678;2023-10-31T14:16:17;11.00;;;3.45;;
80732;SDS011;70130;44.534;18.678;2023-10-31T14:18:44;6.20;;;2.45;;
80732;SDS011;70130;44.534;18.678;2023-10-31T14:21:11;9.93;;;3.03;;
80732;SDS011;70130;44.534;18.678;2023-10-31T14:23:36;9.23;;;3.60;;
80732;SDS011;70130;44.534;18.678;2023-10-31T14:26:02;8.90;;;2.92;;
80732;SDS011;70130;44.534;18.678;2023-10-31T14:28:28;9.48;;;2.83;;
80732;SDS011;70130;44.534;18.678;2023-10-31T14:30:53;8.55;;;3.03;;
80732;SDS011;70130;44.534;18.678;2023-10-31T14:33:19;8.93;;;2.40;;
80732;SDS011;70130;44.534;18.678;2023-10-31T14:35:45;13.20;;;2.92;;
80732;SDS011;70130;44.534;18.678;2023-10-31T14:38:10;8.73;;;2.20;;
80732;SDS011;70130;44.534;18.678;2023-10-31T14:40:36;9.20;;;2.50;;
80732;SDS011;70130;44.534;18.678;2023-10-31T14:43:01;6.90;;;2.72;;
80732;SDS011;70130;44.534;18.678;2023-10-31T14:45:27;8.77;;;3.22;;
80732;SDS011;70130;44.534;18.678;2023-10-31T14:47:55;9.50;;;2.92;;
80732;SDS011;70130;44.534;18.678;2023-10-31T14:50:21;10.00;;;3.47;;
80732;SDS011;70130;44.534;18.678;2023-10-31T14:52:47;10.90;;;4.30;;
80732;SDS011;70130;44.534;18.678;2023-10-31T14:55:15;16.55;;;6.82;;
80732;SDS011;70130;44.534;18.678;2023-10-31T14:57:41;11.35;;;4.47;;
80732;SDS011;70130;44.534;18.678;2023-10-31T15:00:15;10.95;;;3.70;;
80732;SDS011;70130;44.534;18.678;2023-10-31T15:02:41;7.47;;;2.65;;
80732;SDS011;70130;44.534;18.678;2023-10-31T15:05:22;14.52;;;3.65;;
80732;SDS011;70130;44.534;18.678;2023-10-31T15:07:48;9.10;;;2.72;;
80732;SDS011;70130;44.534;18.678;2023-10-31T15:10:14;5.30;;;2.75;;
80732;SDS011;70130;44.534;18.678;2023-10-31T15:12:42;7.57;;;2.92;;
80732;SDS011;70130;44.534;18.678;2023-10-31T15:15:17;11.52;;;2.67;;
80732;SDS011;70130;44.534;18.678;2023-10-31T15:17:43;3.42;;;1.35;;